Time;durP1;ratioP1;P1;durP2;ratioP2;P2;SDS_P1;SDS_P2;PMS_P1;PMS_P2;Temp;Humidity;BMP_temperature;BMP_pressure;BME280_temperature;BME280_humidity;BME280_pressure;Samples;Min_cycle;Max_cycle;Signal;HPM_P1;HPM_P2
2022/03/05 00:02:10;;;;;;;;;;;;;;;;;;5013734;28;19924;-36
2022/03/05 00:04:35;;;;;;;;;;;;;;;;;;5010156;28;19928;-36
2022/03/05 00:07:01;;;;;;;;;;;;;;;;;;5029507;28;19956;-36
2022/03/05 00:09:26;;;;;;;;;;;;;;;;;;5012578;28;19972;-36
2022/03/05 00:11:51;;;;;;;;;;;;;;;;;;5014840;28;19931;-37
2022/03/05 00:14:16;;;;;;;;;;;;;;;;;;5014901;28;20027;-36
2022/03/05 00:16:42;;;;;;;;;;;;;;;;;;5024173;28;19920;-37
2022/03/05 00:19:07;;;;;;;;;;;;;;;;;;5013214;28;20031;-36
2022/03/05 00:21:33;;;;;;;;;;;;;;;;;;5015039;28;19920;-37
2022/03/05 00:23:58;;;;;;;;;;;;;;;;;;5008972;28;20371;-36
2022/03/05 00:26:25;;;;;;;;;;;;;;;;;;5013047;28;20633;-36
2022/03/05 00:28:50;;;;;;;;;;;;;;;;;;5011749;28;20580;-37
2022/03/05 00:31:16;;;;;;;;;;;;;;;;;;5014672;28;19975;-36
2022/03/05 00:33:41;;;;;;;;;;;;;;;;;;5012637;28;19921;-36
2022/03/05 00:36:06;;;;;;;;;;;;;;;;;;5014291;28;19972;-37
2022/03/05 00:38:31;;;;;;;;;;;;;;;;;;5013102;28;19921;-36
2022/03/05 00:40:57;;;;;;;;;;;;;;;;;;5011569;28;20387;-36
2022/03/05 00:43:22;;;;;;;;;;;;;;;;;;5014849;28;19921;-36
2022/03/05 00:45:47;;;;;;;;;;;;;;;;;;5013304;28;19941;-36
2022/03/05 00:48:12;;;;;;;;;;;;;;;;;;5016504;28;19970;-36
2022/03/05 00:50:39;;;;;;;;;;;;;;;;;;5010008;28;19957;-36
2022/03/05 00:53:04;;;;;;;;;;;;;;;;;;5010262;28;19928;-36
2022/03/05 00:55:29;;;;;;;;;;;;;;;;;;5009503;28;19951;-35
2022/03/05 00:57:54;;;;;;;;;;;;;;;;;;5012130;28;19923;-36
2022/03/05 01:00:20;;;;;;;;;;;;;;;;;;5009946;28;19933;-37
2022/03/05 01:02:45;;;;;;;;;;;;;;;;;;5012214;28;19965;-36
2022/03/05 01:05:10;;;;;;;;;;;;;;;;;;5009848;28;19928;-36
2022/03/05 01:07:35;;;;;;;;;;;;;;;;;;5012504;28;20060;-36
2022/03/05 01:10:01;;;;;;;;;;;;;;;;;;5010850;28;19922;-36
2022/03/05 01:12:26;;;;;;;;;;;;;;;;;;5008950;28;20402;-35
2022/03/05 01:14:51;;;;;;;;;;;;;;;;;;5006422;28;19921;-36
2022/03/05 01:17:16;;;;;;;;;;;;;;;;;;5014498;28;19928;-36
2022/03/05 01:19:41;;;;;;;;;;;;;;;;;;5010402;28;20451;-37
2022/03/05 01:22:06;;;;;;;;;;;;;;;;;;5011904;28;19929;-36
2022/03/05 01:24:32;;;;;;;;;;;;;;;;;;5014309;28;20363;-36
2022/03/05 01:26:57;;;;;;;;;;;;;;;;;;5010375;28;19926;-36
2022/03/05 01:29:22;;;;;;;;;;;;;;;;;;5014574;28;19925;-36
2022/03/05 01:31:47;;;;;;;;;;;;;;;;;;5009997;28;19917;-36
2022/03/05 01:34:13;;;;;;;;;;;;;;;;;;5011470;28;20392;-36
2022/03/05 01:36:38;;;;;;;;;;;;;;;;;;5011204;28;19948;-35
2022/03/05 01:39:03;;;;;;;;;;;;;;;;;;5012295;28;19940;-36
2022/03/05 01:41:29;;;;;;;;;;;;;;;;;;5011960;28;19929;-36
2022/03/05 01:43:55;;;;;;;;;;;;;;;;;;5009216;28;20598;-36
2022/03/05 01:46:20;;;;;;;;;;;;;;;;;;5011775;28;20466;-36
2022/03/05 01:48:45;;;;;;;;;;;;;;;;;;5015183;28;19975;-36
2022/03/05 01:51:10;;;;;;;;;;;;;;;;;;5019096;28;20286;-36
2022/03/05 01:53:35;;;;;;;;;;;;;;;;;;5013349;28;19925;-36
2022/03/05 01:56:00;;;;;;;;;;;;;;;;;;5014985;28;20395;-36
2022/03/05 01:58:26;;;;;;;;;;;;;;;;;;5017494;28;19967;-37
2022/03/05 02:00:51;;;;;;;;;;;;;;;;;;5014808;28;20496;-36
2022/03/05 02:03:16;;;;;;;;;;;;;;;;;;5018360;28;19974;-37
2022/03/05 02:05:41;;;;;;;;;;;;;;;;;;5014086;28;19921;-36
2022/03/05 02:08:06;;;;;;;;;;;;;;;;;;5015571;28;20417;-36
2022/03/05 02:10:31;;;;;;;;;;;;;;;;;;5017052;28;20392;-40
2022/03/05 02:12:57;;;;;;;;;;;;;;;;;;5016107;28;19921;-39
2022/03/05 02:15:22;;;;;;;;;;;;;;;;;;5013523;28;19968;-40
2022/03/05 02:17:47;;;;;;;;;;;;;;;;;;5015073;28;20402;-41
2022/03/05 02:20:12;;;;;;;;;;;;;;;;;;5020075;28;19917;-39
2022/03/05 02:22:37;;;;;;;;;;;;;;;;;;5017279;28;19917;-40
2022/03/05 02:25:03;;;;;;;;;;;;;;;;;;5018603;28;19917;-39
2022/03/05 02:27:28;;;;;;;;;;;;;;;;;;5018632;28;20054;-40
2022/03/05 02:29:53;;;;;;;;;;;;;;;;;;5016407;28;19964;-42
2022/03/05 02:32:18;;;;;;;;;;;;;;;;;;5019310;28;19928;-41
2022/03/05 02:34:43;;;;;;;;;;;;;;;;;;5017322;28;19917;-40
2022/03/05 02:37:09;;;;;;;;;;;;;;;;;;5017808;28;19995;-40
2022/03/05 02:39:34;;;;;;;;;;;;;;;;;;5020834;28;19925;-39
2022/03/05 02:41:59;;;;;;;;;;;;;;;;;;5017492;28;20383;-40
2022/03/05 02:44:24;;;;;;;;;;;;;;;;;;5016318;28;19993;-40
2022/03/05 02:46:50;;;;;;;;;;;;;;;;;;5015886;28;19925;-46
2022/03/05 02:49:15;;;;;;;;;;;;;;;;;;5016112;28;20008;-40
2022/03/05 02:51:40;;;;;;;;;;;;;;;;;;5031155;28;19922;-41
2022/03/05 02:54:05;;;;;;;;;;;;;;;;;;5029355;28;19995;-39
2022/03/05 02:56:30;;;;;;;;;;;;;;;;;;5018762;28;19921;-41
2022/03/05 02:58:55;;;;;;;;;;;;;;;;;;5015850;28;20028;-38
2022/03/05 03:01:21;;;;;;;;;;;;;;;;;;5013319;28;20344;-40
2022/03/05 03:03:46;;;;;;;;;;;;;;;;;;5012047;28;19917;-39
2022/03/05 03:06:11;;;;;;;;;;;;;;;;;;5014383;28;19988;-41
2022/03/05 03:08:36;;;;;;;;;;;;;;;;;;5015872;28;19921;-39
2022/03/05 03:11:01;;;;;;;;;;;;;;;;;;5013046;28;19927;-41
2022/03/05 03:13:26;;;;;;;;;;;;;;;;;;5016803;28;19928;-39
2022/03/05 03:15:52;;;;;;;;;;;;;;;;;;5013136;28;19925;-41
2022/03/05 03:18:17;;;;;;;;;;;;;;;;;;5015005;28;20008;-41
2022/03/05 03:20:42;;;;;;;;;;;;;;;;;;5015376;28;19967;-39
2022/03/05 03:23:07;;;;;;;;;;;;;;;;;;5019894;28;20333;-41
2022/03/05 03:25:32;;;;;;;;;;;;;;;;;;5018526;28;19921;-39
2022/03/05 03:27:58;;;;;;;;;;;;;;;;;;5016198;28;19933;-39
2022/03/05 03:30:23;;;;;;;;;;;;;;;;;;5017700;28;20339;-39
2022/03/05 03:32:48;;;;;;;;;;;;;;;;;;5012696;28;19921;-39
2022/03/05 03:35:13;;;;;;;;;;;;;;;;;;5012083;28;20420;-42
2022/03/05 03:37:38;;;;;;;;;;;;;;;;;;5012623;28;20450;-44
2022/03/05 03:40:03;;;;;;;;;;;;;;;;;;5014251;28;19921;-41
2022/03/05 03:42:28;;;;;;;;;;;;;;;;;;5016264;28;20380;-39
2022/03/05 03:44:54;;;;;;;;;;;;;;;;;;5009606;28;20835;-40
2022/03/05 03:47:19;;;;;;;;;;;;;;;;;;5015497;28;20443;-41
2022/03/05 03:49:44;;;;;;;;;;;;;;;;;;5016056;28;19939;-42
2022/03/05 03:52:09;;;;;;;;;;;;;;;;;;5012416;28;20456;-42
2022/03/05 03:54:34;;;;;;;;;;;;;;;;;;5013614;28;19940;-41
2022/03/05 03:57:00;;;;;;;;;;;;;;;;;;5013798;28;19917;-40
2022/03/05 03:59:25;;;;;;;;;;;;;;;;;;5017631;28;20059;-41
2022/03/05 04:01:50;;;;;;;;;;;;;;;;;;5012400;28;20285;-42
2022/03/05 04:04:15;;;;;;;;;;;;;;;;;;5013455;28;20004;-43
2022/03/05 04:09:24;;;;;;;;;;;;;;;;;;5015972;28;19944;-40
2022/03/05 04:11:49;;;;;;;;;;;;;;;;;;5016194;28;20373;-40
2022/03/05 04:14:15;;;;;;;;;;;;;;;;;;5014864;28;20414;-44
2022/03/05 04:16:40;;;;;;;;;;;;;;;;;;5012151;28;19947;-42
2022/03/05 04:19:05;;;;;;;;;;;;;;;;;;5014831;28;19928;-39
2022/03/05 04:21:31;;;;;;;;;;;;;;;;;;5017213;28;20012;-39
2022/03/05 04:23:56;;;;;;;;;;;;;;;;;;5016504;28;19917;-39
2022/03/05 04:26:21;;;;;;;;;;;;;;;;;;5011469;28;19933;-41
2022/03/05 04:28:46;;;;;;;;;;;;;;;;;;5009710;28;20447;-42
2022/03/05 04:31:11;;;;;;;;;;;;;;;;;;5016001;28;19922;-39
2022/03/05 04:33:36;;;;;;;;;;;;;;;;;;5014768;28;19973;-39
2022/03/05 04:36:02;;;;;;;;;;;;;;;;;;5015612;28;19926;-39
2022/03/05 04:38:27;;;;;;;;;;;;;;;;;;5013766;28;19921;-41
2022/03/05 04:40:52;;;;;;;;;;;;;;;;;;5011384;28;19921;-39
2022/03/05 04:43:17;;;;;;;;;;;;;;;;;;5016728;28;21351;-39
2022/03/05 04:45:42;;;;;;;;;;;;;;;;;;5016485;28;19922;-39
2022/03/05 04:48:07;;;;;;;;;;;;;;;;;;5009633;28;20024;-41
2022/03/05 04:50:33;;;;;;;;;;;;;;;;;;5027800;28;20028;-38
2022/03/05 04:52:58;;;;;;;;;;;;;;;;;;5014810;28;19925;-44
2022/03/05 04:55:23;;;;;;;;;;;;;;;;;;5016329;28;19928;-39
2022/03/05 04:57:48;;;;;;;;;;;;;;;;;;5013132;28;20529;-43
2022/03/05 05:00:13;;;;;;;;;;;;;;;;;;5015104;28;19917;-45
2022/03/05 05:02:38;;;;;;;;;;;;;;;;;;5017717;28;19922;-40
2022/03/05 05:05:05;;;;;;;;;;;;;;;;;;5028251;28;19921;-39
2022/03/05 05:07:30;;;;;;;;;;;;;;;;;;5017060;28;19930;-40
2022/03/05 05:09:55;;;;;;;;;;;;;;;;;;5013540;28;19917;-42
2022/03/05 05:12:21;;;;;;;;;;;;;;;;;;5011034;28;19923;-39
2022/03/05 05:14:46;;;;;;;;;;;;;;;;;;5010703;28;19918;-40
2022/03/05 05:17:11;;;;;;;;;;;;;;;;;;5008905;28;19923;-39
2022/03/05 05:19:36;;;;;;;;;;;;;;;;;;5014771;28;19925;-40
2022/03/05 05:22:01;;;;;;;;;;;;;;;;;;5016066;28;19914;-39
2022/03/05 05:24:26;;;;;;;;;;;;;;;;;;5017980;28;19984;-39
2022/03/05 05:26:52;;;;;;;;;;;;;;;;;;5020909;28;19960;-41
2022/03/05 05:29:17;;;;;;;;;;;;;;;;;;5021773;28;19921;-39
2022/03/05 05:31:42;;;;;;;;;;;;;;;;;;5020611;28;20465;-40
2022/03/05 05:34:07;;;;;;;;;;;;;;;;;;5018035;28;20296;-39
2022/03/05 05:36:32;;;;;;;;;;;;;;;;;;5019119;28;19959;-39
2022/03/05 05:38:57;;;;;;;;;;;;;;;;;;5016574;28;19921;-40
2022/03/05 05:41:22;;;;;;;;;;;;;;;;;;5017042;28;19921;-41
2022/03/05 05:43:48;;;;;;;;;;;;;;;;;;5020001;28;19917;-38
2022/03/05 05:46:13;;;;;;;;;;;;;;;;;;5017067;28;19918;-40
2022/03/05 05:48:38;;;;;;;;;;;;;;;;;;5019679;28;20239;-38
2022/03/05 05:51:03;;;;;;;;;;;;;;;;;;5020094;28;19921;-39
2022/03/05 05:53:29;;;;;;;;;;;;;;;;;;5020377;28;19921;-39
2022/03/05 05:55:54;;;;;;;;;;;;;;;;;;5019754;28;20051;-40
2022/03/05 05:58:19;;;;;;;;;;;;;;;;;;5018090;28;20270;-41
2022/03/05 06:00:46;;;;;;;;;;;;;;;;;;5017146;28;20206;-38
2022/03/05 06:03:11;;;;;;;;;;;;;;;;;;5018261;28;19917;-41
2022/03/05 06:05:37;;;;;;;;;;;;;;;;;;5018310;28;19917;-41
2022/03/05 06:08:02;;;;;;;;;;;;;;;;;;5016777;28;19975;-38
2022/03/05 06:10:27;;;;;;;;;;;;;;;;;;5016536;28;20318;-38
2022/03/05 06:12:52;;;;;;;;;;;;;;;;;;5012440;28;19921;-39
2022/03/05 06:15:17;;;;;;;;;;;;;;;;;;5017593;28;19918;-40
2022/03/05 06:17:42;;;;;;;;;;;;;;;;;;5017263;28;20179;-39
2022/03/05 06:20:07;;;;;;;;;;;;;;;;;;5016667;28;19921;-42
2022/03/05 06:22:33;;;;;;;;;;;;;;;;;;5015849;28;20422;-39
2022/03/05 06:24:58;;;;;;;;;;;;;;;;;;5014384;28;19928;-39
2022/03/05 06:27:23;;;;;;;;;;;;;;;;;;5014196;28;20846;-38
2022/03/05 06:29:48;;;;;;;;;;;;;;;;;;5021432;28;20005;-38
2022/03/05 06:32:14;;;;;;;;;;;;;;;;;;5017290;28;19917;-39
2022/03/05 06:34:39;;;;;;;;;;;;;;;;;;5013743;28;20898;-38
2022/03/05 06:37:04;;;;;;;;;;;;;;;;;;5016403;28;19928;-41
2022/03/05 06:39:29;;;;;;;;;;;;;;;;;;5017243;28;20392;-41
2022/03/05 06:41:54;;;;;;;;;;;;;;;;;;5019068;28;19933;-40
2022/03/05 06:44:19;;;;;;;;;;;;;;;;;;5014307;28;19929;-41
2022/03/05 06:46:44;;;;;;;;;;;;;;;;;;5017509;28;19925;-40
2022/03/05 06:49:10;;;;;;;;;;;;;;;;;;5014092;28;19921;-39
2022/03/05 06:51:35;;;;;;;;;;;;;;;;;;5020478;28;20459;-39
2022/03/05 06:54:00;;;;;;;;;;;;;;;;;;5011973;28;19988;-38
2022/03/05 06:56:25;;;;;;;;;;;;;;;;;;5017879;28;20054;-39
2022/03/05 06:58:50;;;;;;;;;;;;;;;;;;5016559;28;20400;-40
2022/03/05 07:01:15;;;;;;;;;;;;;;;;;;5019016;28;20040;-39
2022/03/05 07:03:41;;;;;;;;;;;;;;;;;;5019892;28;20300;-39
2022/03/05 07:06:06;;;;;;;;;;;;;;;;;;5010803;28;19921;-41
2022/03/05 07:08:31;;;;;;;;;;;;;;;;;;5016633;28;19933;-39
2022/03/05 07:10:56;;;;;;;;;;;;;;;;;;5014607;28;19944;-39
2022/03/05 07:13:21;;;;;;;;;;;;;;;;;;5016557;28;20332;-44
2022/03/05 07:15:47;;;;;;;;;;;;;;;;;;5017979;28;19922;-40
2022/03/05 07:18:12;;;;;;;;;;;;;;;;;;5017041;28;19964;-39
2022/03/05 07:20:37;;;;;;;;;;;;;;;;;;5012875;28;20423;-40
2022/03/05 07:23:04;;;;;;;;;;;;;;;;;;5013776;28;19926;-41
2022/03/05 07:25:34;;;;;;;;;;;;;;;;;;5017170;28;19924;-41
2022/03/05 07:27:59;;;;;;;;;;;;;;;;;;5015252;28;19928;-40
2022/03/05 07:30:24;;;;;;;;;;;;;;;;;;5018062;28;20671;-39
2022/03/05 07:32:50;;;;;;;;;;;;;;;;;;5014851;28;19925;-40
2022/03/05 07:35:15;;;;;;;;;;;;;;;;;;5014453;28;20031;-40
2022/03/05 07:37:40;;;;;;;;;;;;;;;;;;5015158;28;20306;-39
2022/03/05 07:40:05;;;;;;;;;;;;;;;;;;5019291;28;19921;-41
2022/03/05 07:42:31;;;;;;;;;;;;;;;;;;5014342;28;19921;-43
2022/03/05 07:44:56;;;;;;;;;;;;;;;;;;5017211;28;20015;-41
2022/03/05 07:47:21;;;;;;;;;;;;;;;;;;5017270;28;19929;-38
2022/03/05 07:49:46;;;;;;;;;;;;;;;;;;5018312;28;20285;-40
2022/03/05 07:52:11;;;;;;;;;;;;;;;;;;5014445;28;19926;-40
2022/03/05 07:54:36;;;;;;;;;;;;;;;;;;5016472;28;20431;-39
2022/03/05 07:57:01;;;;;;;;;;;;;;;;;;5012427;28;19917;-41
2022/03/05 07:59:27;;;;;;;;;;;;;;;;;;5012986;28;19944;-42
2022/03/05 08:01:52;;;;;;;;;;;;;;;;;;5014906;28;19968;-41
2022/03/05 08:04:17;;;;;;;;;;;;;;;;;;5014839;28;19980;-43
2022/03/05 08:06:42;;;;;;;;;;;;;;;;;;5017872;28;20008;-43
2022/03/05 08:09:07;;;;;;;;;;;;;;;;;;5010126;28;19921;-39
2022/03/05 08:11:32;;;;;;;;;;;;;;;;;;5015462;28;20079;-40
2022/03/05 08:13:58;;;;;;;;;;;;;;;;;;5015721;28;19925;-44
2022/03/05 08:16:23;;;;;;;;;;;;;;;;;;5016841;28;19999;-40
2022/03/05 08:18:48;;;;;;;;;;;;;;;;;;5017920;28;19920;-44
2022/03/05 08:21:13;;;;;;;;;;;;;;;;;;5014505;28;19980;-40
2022/03/05 08:23:38;;;;;;;;;;;;;;;;;;5015516;28;20341;-39
2022/03/05 08:26:05;;;;;;;;;;;;;;;;;;5014074;28;19917;-37
2022/03/05 08:28:30;;;;;;;;;;;;;;;;;;5014577;28;19929;-39
2022/03/05 08:30:55;;;;;;;;;;;;;;;;;;5015986;28;19928;-38
2022/03/05 08:33:21;;;;;;;;;;;;;;;;;;5010802;28;19964;-39
2022/03/05 08:35:46;;;;;;;;;;;;;;;;;;5012526;28;19944;-39
2022/03/05 08:38:12;;;;;;;;;;;;;;;;;;5013147;28;19964;-38
2022/03/05 08:40:37;;;;;;;;;;;;;;;;;;5017503;28;19929;-39
2022/03/05 08:43:02;;;;;;;;;;;;;;;;;;5013789;28;19969;-38
2022/03/05 08:45:27;;;;;;;;;;;;;;;;;;5015524;28;19917;-39
2022/03/05 08:47:52;;;;;;;;;;;;;;;;;;5014355;28;19929;-42
2022/03/05 08:50:17;;;;;;;;;;;;;;;;;;5017535;28;19964;-39
2022/03/05 08:52:43;;;;;;;;;;;;;;;;;;5013912;28;20357;-39
2022/03/05 08:55:08;;;;;;;;;;;;;;;;;;5015643;28;19991;-41
2022/03/05 08:57:33;;;;;;;;;;;;;;;;;;5013820;28;19921;-47
2022/03/05 08:59:58;;;;;;;;;;;;;;;;;;5013906;28;20660;-52
2022/03/05 09:02:23;;;;;;;;;;;;;;;;;;5017187;28;19921;-45
2022/03/05 09:04:48;;;;;;;;;;;;;;;;;;5015084;28;19921;-47
2022/03/05 09:07:13;;;;;;;;;;;;;;;;;;5013099;28;19933;-46
2022/03/05 09:09:39;;;;;;;;;;;;;;;;;;5015329;28;20480;-46
2022/03/05 09:12:04;;;;;;;;;;;;;;;;;;5012049;28;19963;-47
2022/03/05 09:14:30;;;;;;;;;;;;;;;;;;5012314;28;20321;-49
2022/03/05 09:16:56;;;;;;;;;;;;;;;;;;5016343;28;19966;-51
2022/03/05 09:19:21;;;;;;;;;;;;;;;;;;5029230;28;19940;-50
2022/03/05 09:21:47;;;;;;;;;;;;;;;;;;5012585;28;20356;-48
2022/03/05 09:24:12;;;;;;;;;;;;;;;;;;5004971;28;19972;-50
2022/03/05 09:26:37;;;;;;;;;;;;;;;;;;5009399;28;19937;-47
2022/03/05 09:29:02;;;;;;;;;;;;;;;;;;5011594;28;20012;-51
2022/03/05 09:31:27;;;;;;;;;;;;;;;;;;5013484;28;19925;-50
2022/03/05 09:33:53;;;;;;;;;;;;;;;;;;5009830;28;19921;-51
2022/03/05 09:36:18;;;;;;;;;;;;;;;;;;5014396;28;20016;-45
2022/03/05 09:38:43;;;;;;;;;;;;;;;;;;5010356;28;19929;-51
2022/03/05 09:41:08;;;;;;;;;;;;;;;;;;5009671;28;20361;-47
2022/03/05 09:43:33;;;;;;;;;;;;;;;;;;5012914;28;19928;-50
2022/03/05 09:45:58;;;;;;;;;;;;;;;;;;5015771;28;19968;-48
2022/03/05 09:48:24;;;;;;;;;;;;;;;;;;5013974;28;20027;-46
2022/03/05 09:50:49;;;;;;;;;;;;;;;;;;5010149;28;19921;-47
2022/03/05 09:53:14;;;;;;;;;;;;;;;;;;5010349;28;19921;-44
2022/03/05 09:55:39;;;;;;;;;;;;;;;;;;5010006;28;20621;-49
2022/03/05 09:58:04;;;;;;;;;;;;;;;;;;5010763;28;20393;-46
2022/03/05 10:00:32;;;;;;;;;;;;;;;;;;5011726;28;19927;-43
2022/03/05 10:02:59;;;;;;;;;;;;;;;;;;5010732;28;19921;-46
2022/03/05 10:05:26;;;;;;;;;;;;;;;;;;5008657;28;19963;-43
2022/03/05 10:07:51;;;;;;;;;;;;;;;;;;5010898;28;19925;-47
2022/03/05 10:10:16;;;;;;;;;;;;;;;;;;5013322;28;20438;-45
2022/03/05 10:12:42;;;;;;;;;;;;;;;;;;5013594;28;19948;-47
2022/03/05 10:15:07;;;;;;;;;;;;;;;;;;5013554;28;19932;-42
2022/03/05 10:17:32;;;;;;;;;;;;;;;;;;5015375;28;19921;-49
2022/03/05 10:19:57;;;;;;;;;;;;;;;;;;5018251;28;19932;-49
2022/03/05 10:22:22;;;;;;;;;;;;;;;;;;5012342;28;20715;-44
2022/03/05 10:24:47;;;;;;;;;;;;;;;;;;5014763;28;19971;-44
2022/03/05 10:27:12;;;;;;;;;;;;;;;;;;5016035;28;19979;-43
2022/03/05 10:29:39;;;;;;;;;;;;;;;;;;5014015;28;19925;-45
2022/03/05 10:32:04;;;;;;;;;;;;;;;;;;5014942;28;19921;-46
2022/03/05 10:34:30;;;;;;;;;;;;;;;;;;5014688;28;19937;-46
2022/03/05 10:36:55;;;;;;;;;;;;;;;;;;5014572;28;19921;-45
2022/03/05 10:39:20;;;;;;;;;;;;;;;;;;5009591;28;19917;-50
2022/03/05 10:41:46;;;;;;;;;;;;;;;;;;5016444;28;19921;-44
2022/03/05 10:44:11;;;;;;;;;;;;;;;;;;5015761;28;19957;-46
2022/03/05 10:46:37;;;;;;;;;;;;;;;;;;5016089;28;19925;-42
2022/03/05 10:49:02;;;;;;;;;;;;;;;;;;5016394;28;19955;-43
2022/03/05 10:51:27;;;;;;;;;;;;;;;;;;5013410;28;19925;-44
2022/03/05 10:53:52;;;;;;;;;;;;;;;;;;5017028;28;20024;-44
2022/03/05 10:56:17;;;;;;;;;;;;;;;;;;5012086;28;20622;-44
2022/03/05 10:58:42;;;;;;;;;;;;;;;;;;5008608;28;19921;-44
2022/03/05 11:01:07;;;;;;;;;;;;;;;;;;5011938;28;19999;-45
2022/03/05 11:03:33;;;;;;;;;;;;;;;;;;5017104;28;20020;-44
2022/03/05 11:05:58;;;;;;;;;;;;;;;;;;5016380;28;19921;-46
2022/03/05 11:08:23;;;;;;;;;;;;;;;;;;5015802;28;20392;-44
2022/03/05 11:10:48;;;;;;;;;;;;;;;;;;5018232;28;19944;-48
2022/03/05 11:13:13;;;;;;;;;;;;;;;;;;5013754;28;19925;-44
2022/03/05 11:15:38;;;;;;;;;;;;;;;;;;5013314;28;19921;-45
2022/03/05 11:18:03;;;;;;;;;;;;;;;;;;5013133;28;19929;-43
2022/03/05 11:20:29;;;;;;;;;;;;;;;;;;5012586;28;20653;-45
2022/03/05 11:22:54;;;;;;;;;;;;;;;;;;5009552;28;19921;-44
2022/03/05 11:25:19;;;;;;;;;;;;;;;;;;5007666;28;19921;-46
2022/03/05 11:27:44;;;;;;;;;;;;;;;;;;5008962;28;20439;-47
2022/03/05 11:30:09;;;;;;;;;;;;;;;;;;5005933;28;19937;-51
2022/03/05 11:32:35;;;;;;;;;;;;;;;;;;5008684;28;19918;-46
2022/03/05 11:35:00;;;;;;;;;;;;;;;;;;5010643;28;20067;-48
2022/03/05 11:37:25;;;;;;;;;;;;;;;;;;5012571;28;20638;-46
2022/03/05 11:39:50;;;;;;;;;;;;;;;;;;5011567;28;20048;-49
2022/03/05 11:42:15;;;;;;;;;;;;;;;;;;5012064;28;19926;-44
2022/03/05 11:44:41;;;;;;;;;;;;;;;;;;5009325;28;19917;-48
2022/03/05 11:47:06;;;;;;;;;;;;;;;;;;5013934;28;20504;-47
2022/03/05 11:49:31;;;;;;;;;;;;;;;;;;5015984;28;20007;-45
2022/03/05 11:51:56;;;;;;;;;;;;;;;;;;5013433;28;19928;-47
2022/03/05 11:54:21;;;;;;;;;;;;;;;;;;5010156;28;20365;-47
2022/03/05 11:56:46;;;;;;;;;;;;;;;;;;5014825;28;20008;-43
2022/03/05 11:59:11;;;;;;;;;;;;;;;;;;5009337;28;19921;-46
2022/03/05 12:01:37;;;;;;;;;;;;;;;;;;5012522;28;20331;-47
2022/03/05 12:04:05;;;;;;;;;;;;;;;;;;5011917;28;20035;-43
2022/03/05 12:06:30;;;;;;;;;;;;;;;;;;5014870;28;19921;-44
2022/03/05 12:08:56;;;;;;;;;;;;;;;;;;5012349;28;20575;-44
2022/03/05 12:11:21;;;;;;;;;;;;;;;;;;5011386;28;20410;-43
2022/03/05 12:13:46;;;;;;;;;;;;;;;;;;5010484;28;19975;-48
2022/03/05 12:16:11;;;;;;;;;;;;;;;;;;5006079;28;20613;-44
2022/03/05 12:18:36;;;;;;;;;;;;;;;;;;5010005;28;20020;-44
2022/03/05 12:21:02;;;;;;;;;;;;;;;;;;5009753;28;20431;-45
2022/03/05 12:23:27;;;;;;;;;;;;;;;;;;5011875;28;19921;-43
2022/03/05 12:25:52;;;;;;;;;;;;;;;;;;5012867;28;19953;-46
2022/03/05 12:28:18;;;;;;;;;;;;;;;;;;5009054;28;20369;-45
2022/03/05 12:30:43;;;;;;;;;;;;;;;;;;5005967;28;20031;-47
2022/03/05 12:33:08;;;;;;;;;;;;;;;;;;5010692;28;19924;-43
2022/03/05 12:35:33;;;;;;;;;;;;;;;;;;5013943;28;19965;-43
2022/03/05 12:37:59;;;;;;;;;;;;;;;;;;5014550;28;19925;-43
2022/03/05 12:40:24;;;;;;;;;;;;;;;;;;5013919;28;20056;-45
2022/03/05 12:42:49;;;;;;;;;;;;;;;;;;5009313;28;20882;-47
2022/03/05 12:45:14;;;;;;;;;;;;;;;;;;5014330;28;20340;-46
2022/03/05 12:47:39;;;;;;;;;;;;;;;;;;5009649;28;19925;-45
2022/03/05 12:50:04;;;;;;;;;;;;;;;;;;5010130;28;19921;-46
2022/03/05 12:52:30;;;;;;;;;;;;;;;;;;5009603;28;19928;-47
2022/03/05 12:54:55;;;;;;;;;;;;;;;;;;5012149;28;20436;-45
2022/03/05 12:57:20;;;;;;;;;;;;;;;;;;5008849;28;20027;-44
2022/03/05 12:59:45;;;;;;;;;;;;;;;;;;5004579;28;19960;-48
2022/03/05 13:02:11;;;;;;;;;;;;;;;;;;5012027;28;19921;-47
2022/03/05 13:04:36;;;;;;;;;;;;;;;;;;5008467;28;20599;-43
2022/03/05 13:07:01;;;;;;;;;;;;;;;;;;5011048;28;19926;-45
2022/03/05 13:09:27;;;;;;;;;;;;;;;;;;5014993;28;20455;-43
2022/03/05 13:11:52;;;;;;;;;;;;;;;;;;5014297;28;19922;-44
2022/03/05 13:14:17;;;;;;;;;;;;;;;;;;5013786;28;20302;-45
2022/03/05 13:16:42;;;;;;;;;;;;;;;;;;5013546;28;19971;-45
2022/03/05 13:19:08;;;;;;;;;;;;;;;;;;5007005;28;19925;-44
2022/03/05 13:21:33;;;;;;;;;;;;;;;;;;5009486;28;20558;-47
2022/03/05 13:23:59;;;;;;;;;;;;;;;;;;5007957;28;19921;-45
2022/03/05 13:26:24;;;;;;;;;;;;;;;;;;5011049;28;20385;-45
2022/03/05 13:28:49;;;;;;;;;;;;;;;;;;5009467;28;19978;-46
2022/03/05 13:31:15;;;;;;;;;;;;;;;;;;5010832;28;20408;-45
2022/03/05 13:33:41;;;;;;;;;;;;;;;;;;5011300;28;19948;-50
2022/03/05 13:36:06;;;;;;;;;;;;;;;;;;5009507;28;20557;-43
2022/03/05 13:38:32;;;;;;;;;;;;;;;;;;5015115;28;19989;-45
2022/03/05 13:40:57;;;;;;;;;;;;;;;;;;5012763;28;20293;-44
2022/03/05 13:43:22;;;;;;;;;;;;;;;;;;5014574;28;19921;-46
2022/03/05 13:45:47;;;;;;;;;;;;;;;;;;5017627;28;20007;-43
2022/03/05 13:48:12;;;;;;;;;;;;;;;;;;5014170;28;20464;-48
2022/03/05 13:50:38;;;;;;;;;;;;;;;;;;5016690;28;19921;-46
2022/03/05 13:53:03;;;;;;;;;;;;;;;;;;5012155;28;19929;-44
2022/03/05 13:55:28;;;;;;;;;;;;;;;;;;5013903;28;20384;-42
2022/03/05 13:57:55;;;;;;;;;;;;;;;;;;5013322;28;19921;-45
2022/03/05 14:00:20;;;;;;;;;;;;;;;;;;5015425;28;19948;-44
2022/03/05 14:02:45;;;;;;;;;;;;;;;;;;5014021;28;20420;-47
2022/03/05 14:05:10;;;;;;;;;;;;;;;;;;5015141;28;19975;-46
2022/03/05 14:07:35;;;;;;;;;;;;;;;;;;5014660;28;20024;-44
2022/03/05 14:10:00;;;;;;;;;;;;;;;;;;5013227;28;19928;-49
2022/03/05 14:12:26;;;;;;;;;;;;;;;;;;5012026;28;19921;-45
2022/03/05 14:14:51;;;;;;;;;;;;;;;;;;5017243;28;19921;-44
2022/03/05 14:17:16;;;;;;;;;;;;;;;;;;5015355;28;20284;-47
2022/03/05 14:19:41;;;;;;;;;;;;;;;;;;5009036;28;20226;-46
2022/03/05 14:22:06;;;;;;;;;;;;;;;;;;5015035;28;19979;-44
2022/03/05 14:24:32;;;;;;;;;;;;;;;;;;5014490;28;19925;-45
2022/03/05 14:26:57;;;;;;;;;;;;;;;;;;5017074;28;20416;-47
2022/03/05 14:29:22;;;;;;;;;;;;;;;;;;5013040;28;19922;-43
2022/03/05 14:31:47;;;;;;;;;;;;;;;;;;5011099;28;19921;-48
2022/03/05 14:34:12;;;;;;;;;;;;;;;;;;5017117;28;19921;-45
2022/03/05 14:36:38;;;;;;;;;;;;;;;;;;5017301;28;20380;-44
2022/03/05 14:39:03;;;;;;;;;;;;;;;;;;5010616;28;20089;-46
2022/03/05 14:41:28;;;;;;;;;;;;;;;;;;5015345;28;19921;-44
2022/03/05 14:43:53;;;;;;;;;;;;;;;;;;5013772;28;20348;-44
2022/03/05 14:46:18;;;;;;;;;;;;;;;;;;5014620;28;19922;-44
2022/03/05 14:48:43;;;;;;;;;;;;;;;;;;5013001;28;19925;-44
2022/03/05 14:51:09;;;;;;;;;;;;;;;;;;5011702;28;20468;-46
2022/03/05 14:53:34;;;;;;;;;;;;;;;;;;5015192;28;19928;-47
2022/03/05 14:55:59;;;;;;;;;;;;;;;;;;5012778;28;19943;-47
2022/03/05 14:58:24;;;;;;;;;;;;;;;;;;5012972;28;20368;-46
2022/03/05 15:00:49;;;;;;;;;;;;;;;;;;5013727;28;19960;-45
2022/03/05 15:03:14;;;;;;;;;;;;;;;;;;5013649;28;19921;-43
2022/03/05 15:05:39;;;;;;;;;;;;;;;;;;5012499;28;20350;-49
2022/03/05 15:08:05;;;;;;;;;;;;;;;;;;5012120;28;20044;-46
2022/03/05 15:10:30;;;;;;;;;;;;;;;;;;5010777;28;19921;-43
2022/03/05 15:12:55;;;;;;;;;;;;;;;;;;5009047;28;19921;-42
2022/03/05 15:15:20;;;;;;;;;;;;;;;;;;5012007;28;19967;-43
2022/03/05 15:17:45;;;;;;;;;;;;;;;;;;5010237;28;19972;-45
2022/03/05 15:20:11;;;;;;;;;;;;;;;;;;5009922;28;20241;-48
2022/03/05 15:22:37;;;;;;;;;;;;;;;;;;5016290;28;19928;-42
2022/03/05 15:25:02;;;;;;;;;;;;;;;;;;5008888;28;20024;-43
2022/03/05 15:27:28;;;;;;;;;;;;;;;;;;5009131;28;19992;-45
2022/03/05 15:29:54;;;;;;;;;;;;;;;;;;5013378;28;20022;-49
2022/03/05 15:32:19;;;;;;;;;;;;;;;;;;5012174;28;19976;-48
2022/03/05 15:34:44;;;;;;;;;;;;;;;;;;5013810;28;19921;-46
2022/03/05 15:37:09;;;;;;;;;;;;;;;;;;5012704;28;20385;-50
2022/03/05 15:39:34;;;;;;;;;;;;;;;;;;5010949;28;19921;-47
2022/03/05 15:41:59;;;;;;;;;;;;;;;;;;5012404;28;19968;-43
2022/03/05 15:44:25;;;;;;;;;;;;;;;;;;5011487;28;20459;-47
2022/03/05 15:46:50;;;;;;;;;;;;;;;;;;5013168;28;19928;-44
2022/03/05 15:49:15;;;;;;;;;;;;;;;;;;5013468;28;20440;-45
2022/03/05 15:51:40;;;;;;;;;;;;;;;;;;5013906;28;19983;-45
2022/03/05 15:54:05;;;;;;;;;;;;;;;;;;5011423;28;19925;-45
2022/03/05 15:56:33;;;;;;;;;;;;;;;;;;5011958;28;19921;-44
2022/03/05 15:58:59;;;;;;;;;;;;;;;;;;5013840;28;20569;-43
2022/03/05 16:01:24;;;;;;;;;;;;;;;;;;5015936;28;19984;-45
2022/03/05 16:03:49;;;;;;;;;;;;;;;;;;5012409;28;19921;-45
2022/03/05 16:06:14;;;;;;;;;;;;;;;;;;5011410;28;19945;-43
2022/03/05 16:08:40;;;;;;;;;;;;;;;;;;5014148;28;20015;-47
2022/03/05 16:11:06;;;;;;;;;;;;;;;;;;5006902;28;19968;-46
2022/03/05 16:13:31;;;;;;;;;;;;;;;;;;5015187;28;19957;-45
2022/03/05 16:15:56;;;;;;;;;;;;;;;;;;5011323;28;19921;-42
2022/03/05 16:18:22;;;;;;;;;;;;;;;;;;5013210;28;20019;-44
2022/03/05 16:20:47;;;;;;;;;;;;;;;;;;5011913;28;19920;-43
2022/03/05 16:23:13;;;;;;;;;;;;;;;;;;5010419;28;19947;-46
2022/03/05 16:25:38;;;;;;;;;;;;;;;;;;5014776;28;20311;-45
2022/03/05 16:28:04;;;;;;;;;;;;;;;;;;5013244;28;20012;-45
2022/03/05 16:30:29;;;;;;;;;;;;;;;;;;5013889;28;19921;-43
2022/03/05 16:32:57;;;;;;;;;;;;;;;;;;5013329;28;19991;-46
2022/03/05 16:35:23;;;;;;;;;;;;;;;;;;5013948;28;20300;-45